sensor_id;sensor_type;location;lat;lon;timestamp;P1;durP1;ratioP1;P2;durP2;ratioP2
44434;SDS011;30138;20.964;105.830;2023-05-29T00:02:28;4.03;;;3.63;;
44434;SDS011;30138;20.964;105.830;2023-05-29T00:07:37;4.22;;;3.63;;
44434;SDS011;30138;20.964;105.830;2023-05-29T00:12:43;3.78;;;3.35;;
44434;SDS011;30138;20.964;105.830;2023-05-29T00:17:50;8.20;;;3.75;;
44434;SDS011;30138;20.964;105.830;2023-05-29T00:22:59;3.78;;;3.40;;
44434;SDS011;30138;20.964;105.830;2023-05-29T00:28:06;4.32;;;3.65;;
44434;SDS011;30138;20.964;105.830;2023-05-29T00:33:13;3.80;;;3.17;;
44434;SDS011;30138;20.964;105.830;2023-05-29T00:38:23;3.67;;;3.30;;
44434;SDS011;30138;20.964;105.830;2023-05-29T00:43:30;5.07;;;3.10;;
44434;SDS011;30138;20.964;105.830;2023-05-29T00:48:36;3.67;;;3.00;;
44434;SDS011;30138;20.964;105.830;2023-05-29T00:53:45;3.65;;;3.28;;
44434;SDS011;30138;20.964;105.830;2023-05-29T00:58:52;3.00;;;2.70;;
44434;SDS011;30138;20.964;105.830;2023-05-29T01:03:59;3.88;;;2.95;;
44434;SDS011;30138;20.964;105.830;2023-05-29T01:09:09;4.60;;;3.30;;
44434;SDS011;30138;20.964;105.830;2023-05-29T01:14:17;3.38;;;3.08;;
44434;SDS011;30138;20.964;105.830;2023-05-29T01:19:39;4.60;;;3.05;;
44434;SDS011;30138;20.964;105.830;2023-05-29T01:25:14;3.53;;;2.78;;
44434;SDS011;30138;20.964;105.830;2023-05-29T01:30:28;3.53;;;3.00;;
44434;SDS011;30138;20.964;105.830;2023-05-29T01:35:37;2.90;;;2.60;;
44434;SDS011;30138;20.964;105.830;2023-05-29T01:40:45;2.97;;;2.78;;
44434;SDS011;30138;20.964;105.830;2023-05-29T01:45:53;3.10;;;2.80;;
44434;SDS011;30138;20.964;105.830;2023-05-29T01:51:04;5.38;;;2.97;;
44434;SDS011;30138;20.964;105.830;2023-05-29T01:56:11;3.15;;;2.85;;
44434;SDS011;30138;20.964;105.830;2023-05-29T02:01:20;3.10;;;2.80;;
44434;SDS011;30138;20.964;105.830;2023-05-29T02:06:27;2.95;;;2.67;;
44434;SDS011;30138;20.964;105.830;2023-05-29T02:11:34;4.28;;;2.72;;
44434;SDS011;30138;20.964;105.830;2023-05-29T02:16:47;3.45;;;2.80;;
44434;SDS011;30138;20.964;105.830;2023-05-29T02:21:55;3.95;;;2.67;;
44434;SDS011;30138;20.964;105.830;2023-05-29T02:27:03;2.80;;;2.60;;
44434;SDS011;30138;20.964;105.830;2023-05-29T02:32:13;2.92;;;2.63;;
44434;SDS011;30138;20.964;105.830;2023-05-29T02:37:21;5.18;;;3.15;;
44434;SDS011;30138;20.964;105.830;2023-05-29T02:42:27;4.43;;;2.70;;
44434;SDS011;30138;20.964;105.830;2023-05-29T02:47:36;3.22;;;2.75;;
44434;SDS011;30138;20.964;105.830;2023-05-29T02:52:43;3.40;;;2.78;;
44434;SDS011;30138;20.964;105.830;2023-05-29T02:57:49;3.85;;;2.63;;
44434;SDS011;30138;20.964;105.830;2023-05-29T03:02:59;3.08;;;2.78;;
44434;SDS011;30138;20.964;105.830;2023-05-29T03:08:07;2.80;;;2.50;;
44434;SDS011;30138;20.964;105.830;2023-05-29T03:13:15;4.15;;;2.83;;
44434;SDS011;30138;20.964;105.830;2023-05-29T03:18:30;2.90;;;2.70;;
44434;SDS011;30138;20.964;105.830;2023-05-29T03:23:38;3.53;;;2.60;;
44434;SDS011;30138;20.964;105.830;2023-05-29T03:28:44;3.85;;;2.78;;
44434;SDS011;30138;20.964;105.830;2023-05-29T03:33:52;4.15;;;2.67;;
44434;SDS011;30138;20.964;105.830;2023-05-29T03:39:09;3.47;;;2.75;;
44434;SDS011;30138;20.964;105.830;2023-05-29T03:44:16;6.20;;;4.30;;
44434;SDS011;30138;20.964;105.830;2023-05-29T03:49:25;9.80;;;5.35;;
44434;SDS011;30138;20.964;105.830;2023-05-29T03:54:32;6.15;;;5.15;;
44434;SDS011;30138;20.964;105.830;2023-05-29T03:59:39;9.90;;;5.47;;
44434;SDS011;30138;20.964;105.830;2023-05-29T04:04:48;5.45;;;4.88;;
44434;SDS011;30138;20.964;105.830;2023-05-29T04:09:56;6.07;;;4.83;;
44434;SDS011;30138;20.964;105.830;2023-05-29T04:15:04;6.40;;;5.03;;
44434;SDS011;30138;20.964;105.830;2023-05-29T04:20:14;5.80;;;4.55;;
44434;SDS011;30138;20.964;105.830;2023-05-29T04:25:21;6.47;;;5.00;;
44434;SDS011;30138;20.964;105.830;2023-05-29T04:30:28;10.20;;;6.28;;
44434;SDS011;30138;20.964;105.830;2023-05-29T04:35:38;9.00;;;6.30;;
44434;SDS011;30138;20.964;105.830;2023-05-29T04:40:46;7.18;;;6.30;;
44434;SDS011;30138;20.964;105.830;2023-05-29T04:45:54;7.60;;;6.80;;
44434;SDS011;30138;20.964;105.830;2023-05-29T04:51:04;9.45;;;5.90;;
44434;SDS011;30138;20.964;105.830;2023-05-29T04:56:12;7.25;;;6.10;;
44434;SDS011;30138;20.964;105.830;2023-05-29T05:01:22;8.00;;;6.32;;
44434;SDS011;30138;20.964;105.830;2023-05-29T05:06:30;8.35;;;6.25;;
44434;SDS011;30138;20.964;105.830;2023-05-29T05:11:37;7.90;;;6.85;;
44434;SDS011;30138;20.964;105.830;2023-05-29T05:16:44;7.05;;;6.32;;
44434;SDS011;30138;20.964;105.830;2023-05-29T05:21:55;6.72;;;6.03;;
44434;SDS011;30138;20.964;105.830;2023-05-29T05:27:04;8.00;;;6.88;;
44434;SDS011;30138;20.964;105.830;2023-05-29T05:32:10;6.88;;;5.72;;
44434;SDS011;30138;20.964;105.830;2023-05-29T05:37:20;7.80;;;6.13;;
44434;SDS011;30138;20.964;105.830;2023-05-29T05:42:29;6.35;;;5.75;;
44434;SDS011;30138;20.964;105.830;2023-05-29T05:47:39;8.93;;;6.23;;
44434;SDS011;30138;20.964;105.830;2023-05-29T05:52:48;9.60;;;6.03;;
44434;SDS011;30138;20.964;105.830;2023-05-29T05:57:55;7.68;;;6.25;;
44434;SDS011;30138;20.964;105.830;2023-05-29T06:03:02;8.63;;;6.85;;
44434;SDS011;30138;20.964;105.830;2023-05-29T06:08:38;10.10;;;7.40;;
44434;SDS011;30138;20.964;105.830;2023-05-29T06:13:47;8.40;;;7.18;;
44434;SDS011;30138;20.964;105.830;2023-05-29T06:19:02;7.90;;;6.55;;
44434;SDS011;30138;20.964;105.830;2023-05-29T06:24:23;8.02;;;6.65;;
44434;SDS011;30138;20.964;105.830;2023-05-29T06:29:31;10.17;;;7.40;;
44434;SDS011;30138;20.964;105.830;2023-05-29T06:34:41;8.80;;;6.88;;
44434;SDS011;30138;20.964;105.830;2023-05-29T06:39:50;7.28;;;6.57;;
44434;SDS011;30138;20.964;105.830;2023-05-29T06:44:59;8.00;;;6.63;;
44434;SDS011;30138;20.964;105.830;2023-05-29T06:50:06;8.23;;;6.90;;
44434;SDS011;30138;20.964;105.830;2023-05-29T06:55:17;8.38;;;6.63;;
44434;SDS011;30138;20.964;105.830;2023-05-29T07:00:24;7.18;;;6.35;;
44434;SDS011;30138;20.964;105.830;2023-05-29T07:05:51;7.32;;;6.53;;
44434;SDS011;30138;20.964;105.830;2023-05-29T07:11:00;7.82;;;6.85;;
44434;SDS011;30138;20.964;105.830;2023-05-29T07:16:08;7.80;;;6.47;;
44434;SDS011;30138;20.964;105.830;2023-05-29T07:21:17;7.10;;;6.40;;
44434;SDS011;30138;20.964;105.830;2023-05-29T07:26:26;8.48;;;6.75;;
44434;SDS011;30138;20.964;105.830;2023-05-29T07:31:33;8.77;;;6.80;;
44434;SDS011;30138;20.964;105.830;2023-05-29T07:36:56;7.18;;;6.40;;
44434;SDS011;30138;20.964;105.830;2023-05-29T07:42:09;7.45;;;6.70;;
44434;SDS011;30138;20.964;105.830;2023-05-29T07:47:17;7.70;;;6.90;;
44434;SDS011;30138;20.964;105.830;2023-05-29T07:52:24;8.27;;;6.80;;
44434;SDS011;30138;20.964;105.830;2023-05-29T07:57:33;8.93;;;6.80;;
44434;SDS011;30138;20.964;105.830;2023-05-29T08:02:41;8.15;;;6.90;;
44434;SDS011;30138;20.964;105.830;2023-05-29T08:08:06;8.02;;;7.10;;
44434;SDS011;30138;20.964;105.830;2023-05-29T08:13:16;12.73;;;10.27;;
44434;SDS011;30138;20.964;105.830;2023-05-29T08:18:24;12.30;;;9.60;;
44434;SDS011;30138;20.964;105.830;2023-05-29T08:23:31;10.85;;;9.18;;
44434;SDS011;30138;20.964;105.830;2023-05-29T08:28:40;10.07;;;9.02;;
44434;SDS011;30138;20.964;105.830;2023-05-29T08:33:47;9.85;;;8.75;;
44434;SDS011;30138;20.964;105.830;2023-05-29T08:38:53;9.35;;;8.38;;
44434;SDS011;30138;20.964;105.830;2023-05-29T08:44:02;9.68;;;8.40;;
44434;SDS011;30138;20.964;105.830;2023-05-29T08:49:11;10.47;;;7.90;;
44434;SDS011;30138;20.964;105.830;2023-05-29T08:54:21;8.57;;;7.60;;
44434;SDS011;30138;20.964;105.830;2023-05-29T08:59:36;8.98;;;7.88;;
44434;SDS011;30138;20.964;105.830;2023-05-29T09:04:46;9.55;;;8.48;;
44434;SDS011;30138;20.964;105.830;2023-05-29T09:09:54;8.73;;;7.82;;
44434;SDS011;30138;20.964;105.830;2023-05-29T09:15:05;9.30;;;7.93;;
44434;SDS011;30138;20.964;105.830;2023-05-29T09:20:22;7.85;;;7.05;;
44434;SDS011;30138;20.964;105.830;2023-05-29T09:25:30;10.10;;;8.63;;
44434;SDS011;30138;20.964;105.830;2023-05-29T09:30:39;13.63;;;9.85;;
44434;SDS011;30138;20.964;105.830;2023-05-29T09:35:47;11.85;;;8.70;;
44434;SDS011;30138;20.964;105.830;2023-05-29T09:40:55;10.10;;;8.07;;
44434;SDS011;30138;20.964;105.830;2023-05-29T09:46:12;10.55;;;8.05;;
44434;SDS011;30138;20.964;105.830;2023-05-29T09:51:21;9.20;;;7.47;;
44434;SDS011;30138;20.964;105.830;2023-05-29T09:56:28;10.57;;;8.00;;
44434;SDS011;30138;20.964;105.830;2023-05-29T10:01:38;9.95;;;6.90;;
44434;SDS011;30138;20.964;105.830;2023-05-29T10:06:47;13.60;;;7.87;;
44434;SDS011;30138;20.964;105.830;2023-05-29T10:11:55;8.95;;;7.10;;
44434;SDS011;30138;20.964;105.830;2023-05-29T10:17:08;10.48;;;7.63;;
44434;SDS011;30138;20.964;105.830;2023-05-29T10:22:19;12.07;;;9.73;;
44434;SDS011;30138;20.964;105.830;2023-05-29T10:27:30;10.43;;;9.13;;
44434;SDS011;30138;20.964;105.830;2023-05-29T10:32:40;10.38;;;8.75;;
44434;SDS011;30138;20.964;105.830;2023-05-29T10:38:08;13.43;;;9.73;;
44434;SDS011;30138;20.964;105.830;2023-05-29T10:43:30;11.30;;;8.60;;
44434;SDS011;30138;20.964;105.830;2023-05-29T10:53:47;9.68;;;8.57;;
44434;SDS011;30138;20.964;105.830;2023-05-29T10:58:54;12.70;;;8.50;;
44434;SDS011;30138;20.964;105.830;2023-05-29T11:09:38;8.63;;;7.47;;
44434;SDS011;30138;20.964;105.830;2023-05-29T11:14:46;12.10;;;7.57;;
44434;SDS011;30138;20.964;105.830;2023-05-29T11:20:03;11.35;;;8.05;;
44434;SDS011;30138;20.964;105.830;2023-05-29T11:25:12;10.20;;;7.75;;
44434;SDS011;30138;20.964;105.830;2023-05-29T11:30:19;9.52;;;7.97;;
44434;SDS011;30138;20.964;105.830;2023-05-29T11:35:29;10.57;;;7.35;;
44434;SDS011;30138;20.964;105.830;2023-05-29T11:40:37;10.85;;;7.35;;
44434;SDS011;30138;20.964;105.830;2023-05-29T11:45:44;15.35;;;10.60;;
44434;SDS011;30138;20.964;105.830;2023-05-29T11:50:54;14.77;;;10.25;;
44434;SDS011;30138;20.964;105.830;2023-05-29T11:56:08;14.35;;;10.43;;
44434;SDS011;30138;20.964;105.830;2023-05-29T12:01:16;13.43;;;9.45;;
44434;SDS011;30138;20.964;105.830;2023-05-29T12:06:34;14.95;;;9.45;;
44434;SDS011;30138;20.964;105.830;2023-05-29T12:11:43;10.87;;;9.00;;
44434;SDS011;30138;20.964;105.830;2023-05-29T12:16:53;13.32;;;9.90;;
44434;SDS011;30138;20.964;105.830;2023-05-29T12:22:02;15.57;;;9.98;;
44434;SDS011;30138;20.964;105.830;2023-05-29T12:27:10;15.07;;;9.95;;
44434;SDS011;30138;20.964;105.830;2023-05-29T12:32:18;13.18;;;9.82;;
44434;SDS011;30138;20.964;105.830;2023-05-29T12:37:26;13.35;;;9.40;;
44434;SDS011;30138;20.964;105.830;2023-05-29T12:42:37;16.77;;;9.50;;
44434;SDS011;30138;20.964;105.830;2023-05-29T12:47:51;19.08;;;12.38;;
44434;SDS011;30138;20.964;105.830;2023-05-29T12:53:00;15.70;;;11.88;;
44434;SDS011;30138;20.964;105.830;2023-05-29T12:58:08;16.05;;;11.27;;
44434;SDS011;30138;20.964;105.830;2023-05-29T13:03:18;14.90;;;11.05;;
44434;SDS011;30138;20.964;105.830;2023-05-29T13:08:26;16.58;;;11.20;;
44434;SDS011;30138;20.964;105.830;2023-05-29T13:13:33;15.65;;;11.65;;
44434;SDS011;30138;20.964;105.830;2023-05-29T13:18:40;16.58;;;11.75;;
44434;SDS011;30138;20.964;105.830;2023-05-29T13:23:49;17.63;;;11.35;;
44434;SDS011;30138;20.964;105.830;2023-05-29T13:28:56;16.15;;;11.02;;
44434;SDS011;30138;20.964;105.830;2023-05-29T13:34:02;14.48;;;10.38;;
44434;SDS011;30138;20.964;105.830;2023-05-29T13:39:12;14.05;;;10.77;;
44434;SDS011;30138;20.964;105.830;2023-05-29T13:44:19;15.50;;;10.25;;
44434;SDS011;30138;20.964;105.830;2023-05-29T13:49:26;14.85;;;9.82;;
44434;SDS011;30138;20.964;105.830;2023-05-29T13:54:34;16.20;;;10.40;;
44434;SDS011;30138;20.964;105.830;2023-05-29T13:59:43;13.43;;;10.13;;
44434;SDS011;30138;20.964;105.830;2023-05-29T14:04:50;17.45;;;11.40;;
44434;SDS011;30138;20.964;105.830;2023-05-29T14:09:59;19.20;;;10.45;;
44434;SDS011;30138;20.964;105.830;2023-05-29T14:15:07;14.93;;;10.27;;
44434;SDS011;30138;20.964;105.830;2023-05-29T14:20:14;17.67;;;10.18;;
44434;SDS011;30138;20.964;105.830;2023-05-29T14:25:23;15.55;;;10.18;;
44434;SDS011;30138;20.964;105.830;2023-05-29T14:30:30;16.05;;;10.63;;
44434;SDS011;30138;20.964;105.830;2023-05-29T14:35:38;26.60;;;16.23;;
44434;SDS011;30138;20.964;105.830;2023-05-29T14:40:47;38.17;;;21.95;;
44434;SDS011;30138;20.964;105.830;2023-05-29T14:45:54;36.60;;;21.15;;
44434;SDS011;30138;20.964;105.830;2023-05-29T14:51:01;38.47;;;21.20;;
44434;SDS011;30138;20.964;105.830;2023-05-29T14:56:10;39.65;;;20.33;;
44434;SDS011;30138;20.964;105.830;2023-05-29T15:01:18;29.52;;;18.52;;
44434;SDS011;30138;20.964;105.830;2023-05-29T15:06:25;29.27;;;17.38;;
44434;SDS011;30138;20.964;105.830;2023-05-29T15:11:35;25.42;;;15.65;;
44434;SDS011;30138;20.964;105.830;2023-05-29T15:16:41;25.30;;;16.00;;
44434;SDS011;30138;20.964;105.830;2023-05-29T15:21:48;22.83;;;14.57;;
44434;SDS011;30138;20.964;105.830;2023-05-29T15:26:59;23.08;;;14.13;;
44434;SDS011;30138;20.964;105.830;2023-05-29T15:32:06;22.42;;;13.63;;
44434;SDS011;30138;20.964;105.830;2023-05-29T15:37:13;19.00;;;12.75;;
44434;SDS011;30138;20.964;105.830;2023-05-29T15:42:22;20.67;;;13.23;;
44434;SDS011;30138;20.964;105.830;2023-05-29T15:47:29;20.83;;;12.18;;
44434;SDS011;30138;20.964;105.830;2023-05-29T15:52:37;18.00;;;11.95;;
44434;SDS011;30138;20.964;105.830;2023-05-29T15:57:46;22.52;;;13.68;;
44434;SDS011;30138;20.964;105.830;2023-05-29T16:02:53;19.90;;;12.80;;
44434;SDS011;30138;20.964;105.830;2023-05-29T16:08:01;20.50;;;12.55;;
44434;SDS011;30138;20.964;105.830;2023-05-29T16:13:09;20.35;;;11.15;;
44434;SDS011;30138;20.964;105.830;2023-05-29T16:18:16;16.55;;;10.27;;
44434;SDS011;30138;20.964;105.830;2023-05-29T16:23:23;17.60;;;10.55;;
44434;SDS011;30138;20.964;105.830;2023-05-29T16:28:32;15.23;;;11.05;;
44434;SDS011;30138;20.964;105.830;2023-05-29T16:33:40;17.27;;;10.00;;
44434;SDS011;30138;20.964;105.830;2023-05-29T16:38:48;16.52;;;10.20;;
44434;SDS011;30138;20.964;105.830;2023-05-29T16:43:57;14.52;;;9.77;;
44434;SDS011;30138;20.964;105.830;2023-05-29T16:49:03;14.95;;;8.93;;
44434;SDS011;30138;20.964;105.830;2023-05-29T16:54:10;13.55;;;8.82;;
44434;SDS011;30138;20.964;105.830;2023-05-29T16:59:20;16.35;;;10.02;;
44434;SDS011;30138;20.964;105.830;2023-05-29T17:04:30;15.65;;;9.30;;
44434;SDS011;30138;20.964;105.830;2023-05-29T17:09:37;16.00;;;9.77;;
44434;SDS011;30138;20.964;105.830;2023-05-29T17:14:45;14.95;;;8.68;;
44434;SDS011;30138;20.964;105.830;2023-05-29T17:19:52;13.18;;;8.60;;
44434;SDS011;30138;20.964;105.830;2023-05-29T17:24:59;13.68;;;8.13;;
44434;SDS011;30138;20.964;105.830;2023-05-29T17:30:08;14.32;;;8.40;;
44434;SDS011;30138;20.964;105.830;2023-05-29T17:40:23;13.15;;;7.25;;
44434;SDS011;30138;20.964;105.830;2023-05-29T17:45:32;11.75;;;7.47;;
44434;SDS011;30138;20.964;105.830;2023-05-29T17:50:38;11.48;;;6.82;;
44434;SDS011;30138;20.964;105.830;2023-05-29T17:55:46;31.70;;;18.23;;
44434;SDS011;30138;20.964;105.830;2023-05-29T18:00:54;25.23;;;16.13;;
44434;SDS011;30138;20.964;105.830;2023-05-29T18:06:02;27.20;;;16.60;;
44434;SDS011;30138;20.964;105.830;2023-05-29T18:11:09;25.55;;;14.52;;
44434;SDS011;30138;20.964;105.830;2023-05-29T18:16:18;22.35;;;14.10;;
44434;SDS011;30138;20.964;105.830;2023-05-29T18:21:24;19.58;;;12.82;;
44434;SDS011;30138;20.964;105.830;2023-05-29T18:26:31;19.05;;;12.77;;
44434;SDS011;30138;20.964;105.830;2023-05-29T18:31:39;21.52;;;12.13;;
44434;SDS011;30138;20.964;105.830;2023-05-29T18:36:46;18.23;;;12.13;;
44434;SDS011;30138;20.964;105.830;2023-05-29T18:41:53;16.48;;;11.20;;
44434;SDS011;30138;20.964;105.830;2023-05-29T18:47:01;14.50;;;10.50;;
44434;SDS011;30138;20.964;105.830;2023-05-29T18:52:08;17.25;;;10.60;;
44434;SDS011;30138;20.964;105.830;2023-05-29T18:57:14;15.77;;;10.65;;
44434;SDS011;30138;20.964;105.830;2023-05-29T19:02:23;13.63;;;9.85;;
44434;SDS011;30138;20.964;105.830;2023-05-29T19:07:30;13.95;;;9.75;;
44434;SDS011;30138;20.964;105.830;2023-05-29T19:12:39;16.55;;;9.18;;
44434;SDS011;30138;20.964;105.830;2023-05-29T19:17:48;13.90;;;9.20;;
44434;SDS011;30138;20.964;105.830;2023-05-29T19:22:56;16.13;;;8.82;;
44434;SDS011;30138;20.964;105.830;2023-05-29T19:28:05;10.57;;;8.57;;
44434;SDS011;30138;20.964;105.830;2023-05-29T19:33:14;12.25;;;8.32;;
44434;SDS011;30138;20.964;105.830;2023-05-29T19:38:20;12.80;;;8.50;;
44434;SDS011;30138;20.964;105.830;2023-05-29T19:43:28;10.77;;;7.72;;
44434;SDS011;30138;20.964;105.830;2023-05-29T19:48:36;9.63;;;7.38;;
44434;SDS011;30138;20.964;105.830;2023-05-29T19:53:44;10.20;;;7.43;;
44434;SDS011;30138;20.964;105.830;2023-05-29T19:58:51;9.02;;;6.95;;
44434;SDS011;30138;20.964;105.830;2023-05-29T20:04:00;9.98;;;7.43;;
44434;SDS011;30138;20.964;105.830;2023-05-29T20:09:07;9.60;;;7.45;;
44434;SDS011;30138;20.964;105.830;2023-05-29T20:14:14;9.48;;;7.18;;
44434;SDS011;30138;20.964;105.830;2023-05-29T20:19:23;8.60;;;6.75;;
44434;SDS011;30138;20.964;105.830;2023-05-29T20:24:30;8.10;;;6.75;;
44434;SDS011;30138;20.964;105.830;2023-05-29T20:29:37;8.02;;;6.70;;
44434;SDS011;30138;20.964;105.830;2023-05-29T20:34:47;9.13;;;6.10;;
44434;SDS011;30138;20.964;105.830;2023-05-29T20:39:54;8.25;;;6.47;;
44434;SDS011;30138;20.964;105.830;2023-05-29T20:45:01;6.97;;;5.82;;
44434;SDS011;30138;20.964;105.830;2023-05-29T20:50:11;7.68;;;5.85;;
44434;SDS011;30138;20.964;105.830;2023-05-29T20:55:17;8.30;;;5.88;;
44434;SDS011;30138;20.964;105.830;2023-05-29T21:00:27;9.43;;;6.35;;
44434;SDS011;30138;20.964;105.830;2023-05-29T21:05:36;8.23;;;6.22;;
44434;SDS011;30138;20.964;105.830;2023-05-29T21:10:42;8.00;;;6.00;;
44434;SDS011;30138;20.964;105.830;2023-05-29T21:15:50;6.60;;;5.00;;
44434;SDS011;30138;20.964;105.830;2023-05-29T21:20:59;6.20;;;5.10;;
44434;SDS011;30138;20.964;105.830;2023-05-29T21:26:06;8.30;;;5.50;;
44434;SDS011;30138;20.964;105.830;2023-05-29T21:31:13;7.43;;;5.53;;
44434;SDS011;30138;20.964;105.830;2023-05-29T21:36:22;8.00;;;5.18;;
44434;SDS011;30138;20.964;105.830;2023-05-29T21:41:30;5.85;;;5.20;;
44434;SDS011;30138;20.964;105.830;2023-05-29T21:46:37;6.03;;;5.15;;
44434;SDS011;30138;20.964;105.830;2023-05-29T21:51:46;7.38;;;5.28;;
44434;SDS011;30138;20.964;105.830;2023-05-29T21:56:53;7.40;;;4.88;;
44434;SDS011;30138;20.964;105.830;2023-05-29T22:02:01;5.63;;;4.78;;
44434;SDS011;30138;20.964;105.830;2023-05-29T22:07:11;6.50;;;4.80;;
44434;SDS011;30138;20.964;105.830;2023-05-29T22:12:18;5.50;;;4.78;;
44434;SDS011;30138;20.964;105.830;2023-05-29T22:17:26;6.70;;;4.35;;
44434;SDS011;30138;20.964;105.830;2023-05-29T22:22:36;6.38;;;4.68;;
44434;SDS011;30138;20.964;105.830;2023-05-29T22:27:44;5.82;;;4.57;;
44434;SDS011;30138;20.964;105.830;2023-05-29T22:32:51;6.47;;;4.72;;
44434;SDS011;30138;20.964;105.830;2023-05-29T22:38:01;5.53;;;4.80;;
44434;SDS011;30138;20.964;105.830;2023-05-29T22:43:08;5.20;;;4.60;;
44434;SDS011;30138;20.964;105.830;2023-05-29T22:48:15;6.00;;;4.18;;
44434;SDS011;30138;20.964;105.830;2023-05-29T22:53:25;5.22;;;4.10;;
44434;SDS011;30138;20.964;105.830;2023-05-29T22:58:32;6.03;;;4.30;;
44434;SDS011;30138;20.964;105.830;2023-05-29T23:03:39;5.57;;;4.32;;
44434;SDS011;30138;20.964;105.830;2023-05-29T23:08:47;5.30;;;4.28;;
44434;SDS011;30138;20.964;105.830;2023-05-29T23:13:54;5.10;;;4.35;;
44434;SDS011;30138;20.964;105.830;2023-05-29T23:19:01;5.28;;;4.20;;
44434;SDS011;30138;20.964;105.830;2023-05-29T23:24:10;4.82;;;4.25;;
44434;SDS011;30138;20.964;105.830;2023-05-29T23:29:16;4.60;;;4.10;;
44434;SDS011;30138;20.964;105.830;2023-05-29T23:34:23;7.70;;;4.00;;
44434;SDS011;30138;20.964;105.830;2023-05-29T23:39:31;4.25;;;3.78;;
44434;SDS011;30138;20.964;105.830;2023-05-29T23:44:38;5.18;;;4.38;;
44434;SDS011;30138;20.964;105.830;2023-05-29T23:49:44;4.13;;;3.72;;
44434;SDS011;30138;20.964;105.830;2023-05-29T23:54:52;5.28;;;3.78;;
44434;SDS011;30138;20.964;105.830;2023-05-29T23:59:59;5.63;;;4.13;;
